Time;durP1;ratioP1;P1;durP2;ratioP2;P2;SDS_P1;SDS_P2;PMS_P1;PMS_P2;Temp;Humidity;BMP_temperature;BMP_pressure;BME280_temperature;BME280_humidity;BME280_pressure;Samples;Min_cycle;Max_cycle;Signal;HPM_P1;HPM_P2
2023/05/19 00:01:44;;;;;;;;;;;;;;;9.44;55.27;102603.66;5051987;28;20007;-73
2023/05/19 00:04:11;;;;;;;;;;;;;;;9.42;55.54;102605.44;5051826;28;19916;-75
2023/05/19 00:06:37;;;;;;;;;;;;;;;9.43;55.26;102601.91;5051272;28;19917;-75
2023/05/19 00:09:07;;;;;;;;;;;;;;;9.42;54.66;102605.44;5051174;28;19916;-75
2023/05/19 00:11:32;;;;;;;;;;;;;;;9.37;56.07;102606.22;5052345;28;19917;-74
2023/05/19 00:13:58;;;;;;;;;;;;;;;9.34;55.63;102607.09;5050589;28;19912;-75
2023/05/19 00:16:25;;;;;;;;;;;;;;;9.31;55.97;102608.81;5050558;28;20291;-75
2023/05/19 00:18:52;;;;;;;;;;;;;;;9.29;55.64;102605.25;5051757;28;19917;-76
2023/05/19 00:21:17;;;;;;;;;;;;;;;9.25;56.38;102601.72;5050884;28;19931;-75
2023/05/19 00:23:43;;;;;;;;;;;;;;;9.20;55.90;102592.84;5051931;28;19999;-76
2023/05/19 00:26:08;;;;;;;;;;;;;;;9.20;56.57;102595.50;5051668;28;19943;-75
2023/05/19 00:28:34;;;;;;;;;;;;;;;9.13;56.29;102583.94;5048159;28;19925;-75
2023/05/19 00:31:00;;;;;;;;;;;;;;;9.07;56.83;102589.13;5045381;28;20380;-76
2023/05/19 00:33:26;;;;;;;;;;;;;;;9.02;58.10;102575.88;5051916;28;20026;-76
2023/05/19 00:35:51;;;;;;;;;;;;;;;9.00;58.36;102577.63;5044636;28;19925;-75
2023/05/19 00:38:17;;;;;;;;;;;;;;;8.97;57.88;102572.28;5052245;28;19928;-75
2023/05/19 00:40:42;;;;;;;;;;;;;;;8.92;57.90;102573.09;5051782;28;20371;-76
2023/05/19 00:43:07;;;;;;;;;;;;;;;8.87;59.58;102572.16;5034014;28;19928;-75
2023/05/19 00:45:33;;;;;;;;;;;;;;;8.86;59.78;102573.91;5046770;28;19932;-75
2023/05/19 00:47:58;;;;;;;;;;;;;;;8.85;59.39;102571.25;5054276;28;20284;-73
2023/05/19 00:50:24;;;;;;;;;;;;;;;8.81;59.99;102571.22;5049540;28;20015;-75
2023/05/19 00:52:50;;;;;;;;;;;;;;;8.79;59.94;102572.06;5046102;28;20364;-75
2023/05/19 00:55:15;;;;;;;;;;;;;;;8.78;60.17;102572.94;5040032;28;19947;-75
2023/05/19 00:57:42;;;;;;;;;;;;;;;8.76;60.10;102575.53;5055742;28;19916;-74
2023/05/19 01:00:07;;;;;;;;;;;;;;;8.75;60.48;102572.88;5054067;28;20028;-74
2023/05/19 01:02:33;;;;;;;;;;;;;;;8.75;59.64;102579.06;5055751;28;19971;-74
2023/05/19 01:04:59;;;;;;;;;;;;;;;8.74;59.46;102576.41;5055270;28;19917;-74
2023/05/19 01:07:24;;;;;;;;;;;;;;;8.71;59.87;102573.72;5037733;28;19919;-74
2023/05/19 01:09:50;;;;;;;;;;;;;;;8.69;59.46;102573.69;5043784;28;20128;-73
2023/05/19 01:12:15;;;;;;;;;;;;;;;8.68;60.19;102577.19;5050689;28;19940;-74
2023/05/19 01:14:41;;;;;;;;;;;;;;;8.61;60.98;102577.97;5055478;28;19925;-74
2023/05/19 01:17:13;;;;;;;;;;;;;;;8.57;59.67;102577.03;5053792;28;20371;-74
2023/05/19 01:19:48;;;;;;;;;;;;;;;8.55;60.24;102576.13;5053932;28;19916;-74
2023/05/19 01:22:32;;;;;;;;;;;;;;;8.54;60.78;102577.00;5054070;28;19921;-74
2023/05/19 01:25:18;;;;;;;;;;;;;;;8.51;60.74;102576.09;5043122;28;19917;-74
2023/05/19 01:27:50;;;;;;;;;;;;;;;8.50;62.29;102579.56;5053695;28;19940;-74
2023/05/19 01:30:36;;;;;;;;;;;;;;;8.46;63.07;102572.50;5045635;28;19940;-75
2023/05/19 01:33:05;;;;;;;;;;;;;;;8.43;60.76;102575.94;5047935;28;20107;-74
2023/05/19 01:35:32;;;;;;;;;;;;;;;8.40;61.31;102576.78;5050430;28;20287;-74
2023/05/19 01:37:58;;;;;;;;;;;;;;;8.36;63.15;102567.03;5053633;28;19917;-74
2023/05/19 01:40:25;;;;;;;;;;;;;;;8.33;62.36;102574.00;5053594;28;19917;-74
2023/05/19 01:42:52;;;;;;;;;;;;;;;8.28;62.59;102573.03;5053489;28;19921;-74
2023/05/19 01:45:18;;;;;;;;;;;;;;;8.25;63.44;102570.38;5054614;28;19917;-74
2023/05/19 01:47:45;;;;;;;;;;;;;;;8.21;64.38;102568.53;5050510;28;20015;-74
2023/05/19 01:50:10;;;;;;;;;;;;;;;8.18;64.48;102556.19;5054340;28;19926;-75
2023/05/19 01:52:36;;;;;;;;;;;;;;;8.17;64.61;102565.84;5054752;28;20024;-74
2023/05/19 01:55:01;;;;;;;;;;;;;;;8.14;64.69;102564.94;5052925;28;19979;-74
2023/05/19 01:57:36;;;;;;;;;;;;;;;8.11;65.22;102554.31;5052729;28;19969;-73
2023/05/19 02:00:11;;;;;;;;;;;;;;;8.10;64.86;102552.53;5036147;28;19924;-73
2023/05/19 02:02:42;;;;;;;;;;;;;;;8.10;63.97;102556.06;5053627;28;19952;-74
2023/05/19 02:05:30;;;;;;;;;;;;;;;8.07;66.12;102553.38;5054099;28;19974;-73
2023/05/19 02:08:00;;;;;;;;;;;;;;;8.05;65.87;102554.22;5041737;28;20276;-74
2023/05/19 02:10:31;;;;;;;;;;;;;;;8.04;66.02;102545.44;5052227;28;19917;-74
2023/05/19 02:12:59;;;;;;;;;;;;;;;8.00;62.67;102553.25;5036370;28;19940;-73
2023/05/19 02:15:27;;;;;;;;;;;;;;;7.98;67.69;102555.88;5052483;28;20369;-74
2023/05/19 02:17:54;;;;;;;;;;;;;;;7.94;65.59;102557.56;5052404;28;19924;-73
2023/05/19 02:20:21;;;;;;;;;;;;;;;7.91;64.92;102553.97;5043599;28;19961;-73
2023/05/19 02:22:46;;;;;;;;;;;;;;;7.89;66.15;102547.81;5036236;28;20323;-74
2023/05/19 02:25:12;;;;;;;;;;;;;;;7.85;64.99;102544.22;5052409;28;19913;-74
2023/05/19 02:27:37;;;;;;;;;;;;;;;7.87;65.29;102541.63;5052413;28;20060;-74
2023/05/19 02:30:03;;;;;;;;;;;;;;;7.84;66.65;102550.38;5048449;28;19921;-74
2023/05/19 02:32:29;;;;;;;;;;;;;;;7.81;67.34;102547.66;5046612;28;19917;-74
2023/05/19 02:34:55;;;;;;;;;;;;;;;7.80;67.90;102552.94;5051983;28;20257;-74
2023/05/19 02:37:22;;;;;;;;;;;;;;;7.75;67.52;102543.19;5054068;28;19929;-74
2023/05/19 02:39:48;;;;;;;;;;;;;;;7.73;66.98;102538.75;5053322;28;19917;-74
2023/05/19 02:42:16;;;;;;;;;;;;;;;7.72;66.68;102536.97;5052588;28;20023;-74
2023/05/19 02:44:41;;;;;;;;;;;;;;;7.70;67.27;102538.69;5053638;28;19916;-74
2023/05/19 02:47:07;;;;;;;;;;;;;;;7.68;65.97;102537.78;5041048;28;19924;-74
2023/05/19 02:49:35;;;;;;;;;;;;;;;7.65;66.99;102535.09;5047724;28;20347;-74
2023/05/19 02:52:02;;;;;;;;;;;;;;;7.62;68.93;102538.56;5045836;28;19921;-74
2023/05/19 02:54:28;;;;;;;;;;;;;;;7.60;68.11;102540.28;5045984;28;19916;-74
2023/05/19 02:56:54;;;;;;;;;;;;;;;7.59;69.51;102532.34;5053450;28;19960;-74
2023/05/19 02:59:19;;;;;;;;;;;;;;;7.56;70.27;102535.81;5052004;28;19959;-74
2023/05/19 03:01:46;;;;;;;;;;;;;;;7.54;68.50;102525.25;5053344;28;20401;-74
2023/05/19 03:04:12;;;;;;;;;;;;;;;7.54;69.09;102525.25;5053294;28;20034;-74
2023/05/19 03:06:38;;;;;;;;;;;;;;;7.52;68.98;102531.38;5051635;28;19920;-74
2023/05/19 03:09:03;;;;;;;;;;;;;;;7.50;69.06;102525.16;5051114;28;19923;-74
2023/05/19 03:11:29;;;;;;;;;;;;;;;7.48;69.18;102526.88;5051873;28;20269;-74
2023/05/19 03:13:55;;;;;;;;;;;;;;;7.46;68.19;102529.47;5053224;28;20007;-75
2023/05/19 03:16:20;;;;;;;;;;;;;;;7.45;69.18;102526.84;5052769;28;19928;-75
2023/05/19 03:18:46;;;;;;;;;;;;;;;7.42;70.12;102529.41;5051863;28;20210;-75
2023/05/19 03:21:11;;;;;;;;;;;;;;;7.41;70.15;102527.63;5053012;28;19927;-75
2023/05/19 03:23:37;;;;;;;;;;;;;;;7.39;68.09;102537.25;5015646;28;20335;-76
2023/05/19 03:26:03;;;;;;;;;;;;;;;7.38;68.68;102531.09;5048508;28;19920;-75
2023/05/19 03:28:28;;;;;;;;;;;;;;;7.36;68.37;102526.66;5050988;28;20350;-75
2023/05/19 03:30:55;;;;;;;;;;;;;;;7.36;69.21;102529.28;5040286;28;19921;-75
2023/05/19 03:33:24;;;;;;;;;;;;;;;7.33;68.40;102528.38;5051477;28;20299;-75
2023/05/19 03:35:51;;;;;;;;;;;;;;;7.34;69.21;102542.44;5045954;28;19972;-75
2023/05/19 03:38:17;;;;;;;;;;;;;;;7.31;69.53;102542.38;5051552;28;19917;-75
2023/05/19 03:40:50;;;;;;;;;;;;;;;7.28;68.33;102537.94;5051319;28;19971;-75
2023/05/19 03:43:16;;;;;;;;;;;;;;;7.26;68.67;102536.13;5051710;28;20356;-76
2023/05/19 03:45:46;;;;;;;;;;;;;;;7.25;69.30;102545.81;5050975;28;20011;-76
2023/05/19 03:48:30;;;;;;;;;;;;;;;7.24;69.55;102545.75;5051798;28;19928;-76
2023/05/19 03:51:28;;;;;;;;;;;;;;;7.22;68.11;102548.38;5043057;28;19937;-76
2023/05/19 03:53:58;;;;;;;;;;;;;;;7.21;69.38;102550.97;5051021;28;19974;-77
2023/05/19 03:56:26;;;;;;;;;;;;;;;7.19;69.05;102543.03;5051431;28;19925;-76
2023/05/19 03:58:53;;;;;;;;;;;;;;;7.19;68.55;102543.03;5052579;28;19917;-76
2023/05/19 04:01:19;;;;;;;;;;;;;;;7.19;69.20;102547.41;5051590;28;19920;-76
2023/05/19 04:03:45;;;;;;;;;;;;;;;7.19;68.68;102544.78;5034778;28;19966;-76
2023/05/19 04:06:11;;;;;;;;;;;;;;;7.19;68.34;102550.94;5052932;28;20265;-76
2023/05/19 04:08:38;;;;;;;;;;;;;;;7.17;68.81;102547.41;5051118;28;19943;-76
2023/05/19 04:11:03;;;;;;;;;;;;;;;7.15;69.73;102549.13;5051743;28;20425;-77
2023/05/19 04:13:29;;;;;;;;;;;;;;;7.17;69.65;102554.41;5051381;28;19921;-76
2023/05/19 04:15:54;;;;;;;;;;;;;;;7.18;69.43;102545.66;5050960;28;19929;-75
2023/05/19 04:18:20;;;;;;;;;;;;;;;7.18;69.72;102545.66;5052901;28;20265;-75
2023/05/19 04:20:45;;;;;;;;;;;;;;;7.17;70.82;102547.41;5048179;28;19913;-75
2023/05/19 04:23:11;;;;;;;;;;;;;;;7.20;70.65;102541.31;5059336;28;20011;-75
2023/05/19 04:25:36;;;;;;;;;;;;;;;7.22;70.14;102539.56;5057045;28;19978;-77
2023/05/19 04:28:03;;;;;;;;;;;;;;;7.22;71.34;102552.75;5056681;28;21065;-76
2023/05/19 04:30:28;;;;;;;;;;;;;;;7.22;71.54;102548.38;5048973;28;19973;-75
2023/05/19 04:32:56;;;;;;;;;;;;;;;7.23;72.25;102546.63;5057782;28;19971;-74
2023/05/19 04:35:22;;;;;;;;;;;;;;;7.26;71.80;102549.31;5051606;28;19966;-75
2023/05/19 04:37:48;;;;;;;;;;;;;;;7.28;71.81;102547.59;5043455;28;20277;-75
2023/05/19 04:40:19;;;;;;;;;;;;;;;7.29;72.77;102541.47;5049745;28;19921;-75
2023/05/19 04:42:45;;;;;;;;;;;;;;;7.34;71.91;102545.06;5052336;28;20280;-75
2023/05/19 04:45:12;;;;;;;;;;;;;;;7.37;72.43;102544.25;5058900;28;19909;-75
2023/05/19 04:47:41;;;;;;;;;;;;;;;7.40;72.50;102542.56;5053871;28;20499;-75
2023/05/19 04:50:08;;;;;;;;;;;;;;;7.44;70.90;102547.03;5052423;28;19925;-75
2023/05/19 04:52:34;;;;;;;;;;;;;;;7.48;72.18;102546.22;5048798;28;19928;-75
2023/05/19 04:55:01;;;;;;;;;;;;;;;7.51;71.26;102548.03;5057033;28;20371;-75
2023/05/19 04:57:26;;;;;;;;;;;;;;;7.56;71.22;102538.44;5057746;28;19944;-75
2023/05/19 04:59:52;;;;;;;;;;;;;;;7.60;72.40;102553.47;5056880;28;19924;-75
2023/05/19 05:02:18;;;;;;;;;;;;;;;7.67;72.69;102558.00;5049991;28;19955;-75
2023/05/19 05:04:45;;;;;;;;;;;;;;;7.76;71.76;102549.34;5050752;28;19983;-77
2023/05/19 05:07:11;;;;;;;;;;;;;;;7.83;72.71;102553.84;5043310;28;19921;-76
2023/05/19 05:09:37;;;;;;;;;;;;;;;7.92;73.34;102545.22;5045734;28;19921;-76
2023/05/19 05:12:03;;;;;;;;;;;;;;;8.00;72.28;102564.69;5054853;28;19959;-75
2023/05/19 05:14:29;;;;;;;;;;;;;;;8.06;72.99;102555.97;5047465;28;20379;-76
2023/05/19 05:16:55;;;;;;;;;;;;;;;8.12;72.40;102551.69;5038397;28;19929;-76
2023/05/19 05:19:23;;;;;;;;;;;;;;;8.19;73.43;102550.06;5036063;28;20071;-76
2023/05/19 05:21:48;;;;;;;;;;;;;;;8.29;75.67;102557.25;5052263;28;19980;-76
2023/05/19 05:24:15;;;;;;;;;;;;;;;8.36;73.13;102558.22;5057027;28;19996;-77
2023/05/19 05:26:45;;;;;;;;;;;;;;;8.44;74.19;102558.38;5057146;28;19927;-76
2023/05/19 05:29:11;;;;;;;;;;;;;;;8.51;72.71;102554.97;5047457;28;20292;-76
2023/05/19 05:31:37;;;;;;;;;;;;;;;8.56;73.30;102559.44;5037044;28;19921;-76
2023/05/19 05:34:03;;;;;;;;;;;;;;;8.65;74.98;102570.97;5053871;28;20403;-76
2023/05/19 05:36:30;;;;;;;;;;;;;;;8.71;73.83;102564.03;5023395;28;19966;-76
2023/05/19 05:38:58;;;;;;;;;;;;;;;8.78;72.64;102562.38;5026238;28;19925;-76
2023/05/19 05:41:26;;;;;;;;;;;;;;;8.87;72.59;102562.47;5034779;28;19927;-76
2023/05/19 05:43:51;;;;;;;;;;;;;;;8.98;69.25;102559.97;5037091;28;19916;-76
2023/05/19 05:46:17;;;;;;;;;;;;;;;9.07;70.97;102562.72;5051278;28;19925;-76
2023/05/19 05:48:42;;;;;;;;;;;;;;;9.15;71.33;102553.13;5054820;28;19924;-76
2023/05/19 05:51:09;;;;;;;;;;;;;;;9.26;68.62;102564.69;5053410;28;19921;-77
2023/05/19 05:53:38;;;;;;;;;;;;;;;9.38;72.99;102557.78;5035481;28;19917;-77
2023/05/19 05:56:04;;;;;;;;;;;;;;;9.45;71.39;102552.56;5045286;28;20302;-77
2023/05/19 05:58:39;;;;;;;;;;;;;;;9.55;70.02;102557.97;5053389;28;19998;-77
2023/05/19 06:01:09;;;;;;;;;;;;;;;9.62;71.63;102558.03;5053264;28;19920;-77
2023/05/19 06:03:36;;;;;;;;;;;;;;;9.66;69.53;102553.66;5054524;28;19924;-77
2023/05/19 06:06:07;;;;;;;;;;;;;;;9.72;72.16;102558.09;5040411;28;19917;-76
2023/05/19 06:08:36;;;;;;;;;;;;;;;9.77;71.32;102559.94;5050414;28;19920;-76
2023/05/19 06:11:08;;;;;;;;;;;;;;;9.83;70.91;102557.31;5053065;28;19943;-76
2023/05/19 06:13:35;;;;;;;;;;;;;;;9.93;70.71;102563.59;5036863;28;19967;-76
2023/05/19 06:16:02;;;;;;;;;;;;;;;10.04;71.72;102563.66;5052741;28;19974;-77
2023/05/19 06:18:37;;;;;;;;;;;;;;;10.16;71.19;102563.75;5053000;28;19924;-77
2023/05/19 06:21:02;;;;;;;;;;;;;;;10.26;70.44;102562.06;5037279;28;20025;-77
2023/05/19 06:23:29;;;;;;;;;;;;;;;10.34;70.98;102563.06;5046414;28;19923;-77
2023/05/19 06:25:55;;;;;;;;;;;;;;;10.45;68.83;102558.69;5052683;28;20280;-77
2023/05/19 06:28:20;;;;;;;;;;;;;;;10.59;70.08;102561.44;5051708;28;19916;-77
2023/05/19 06:30:46;;;;;;;;;;;;;;;10.72;69.26;102557.09;5041269;28;19917;-77
2023/05/19 06:33:21;;;;;;;;;;;;;;;10.84;67.41;102567.75;5039902;28;19925;-77
2023/05/19 06:35:46;;;;;;;;;;;;;;;10.92;67.66;102562.47;5052348;28;19925;-77
2023/05/19 06:38:12;;;;;;;;;;;;;;;11.03;67.94;102571.38;5031389;28;19917;-77
2023/05/19 06:40:39;;;;;;;;;;;;;;;11.17;65.57;102559.03;5043500;28;20341;-77
2023/05/19 06:43:04;;;;;;;;;;;;;;;11.26;67.72;102559.94;5049298;28;19917;-77
2023/05/19 06:45:53;;;;;;;;;;;;;;;11.34;67.53;102558.19;5052210;28;19920;-77
2023/05/19 06:48:19;;;;;;;;;;;;;;;11.38;66.26;102554.69;5033334;28;19940;-77
2023/05/19 06:50:44;;;;;;;;;;;;;;;11.49;65.29;102555.56;5042372;28;19917;-77
2023/05/19 06:53:11;;;;;;;;;;;;;;;11.64;67.03;102557.34;5052661;28;19928;-77
2023/05/19 06:55:37;;;;;;;;;;;;;;;11.77;67.30;102555.59;5053344;28;19924;-77
2023/05/19 06:58:03;;;;;;;;;;;;;;;11.87;65.68;102552.13;5053486;28;19917;-77
2023/05/19 07:00:28;;;;;;;;;;;;;;;11.94;66.19;102552.97;5052013;28;20003;-76
2023/05/19 07:02:54;;;;;;;;;;;;;;;12.01;66.09;102552.09;5052379;28;20003;-77
2023/05/19 07:05:20;;;;;;;;;;;;;;;12.12;63.49;102552.13;5047710;28;19917;-77
2023/05/19 07:07:50;;;;;;;;;;;;;;;12.24;65.02;102549.44;5043188;28;20003;-77
2023/05/19 07:10:20;;;;;;;;;;;;;;;12.36;65.12;102549.38;5051772;28;19921;-76
2023/05/19 07:12:46;;;;;;;;;;;;;;;12.45;64.52;102554.69;5051982;28;19928;-76
2023/05/19 07:15:14;;;;;;;;;;;;;;;12.56;64.82;102557.34;5051692;28;19995;-77
2023/05/19 07:17:39;;;;;;;;;;;;;;;12.65;65.03;102556.41;5053243;28;19987;-76
2023/05/19 07:20:05;;;;;;;;;;;;;;;12.73;64.20;102559.03;5051426;28;19913;-76
2023/05/19 07:22:33;;;;;;;;;;;;;;;12.83;64.73;102555.47;5053155;28;19924;-75
2023/05/19 07:24:59;;;;;;;;;;;;;;;12.95;64.81;102559.84;5051396;28;20357;-76
2023/05/19 07:27:26;;;;;;;;;;;;;;;13.07;64.11;102550.03;5050381;28;19921;-76
2023/05/19 07:29:52;;;;;;;;;;;;;;;13.24;63.67;102552.63;5041861;28;19924;-76
2023/05/19 07:32:17;;;;;;;;;;;;;;;13.39;61.69;102545.47;5053131;28;19924;-76
2023/05/19 07:34:42;;;;;;;;;;;;;;;13.56;62.79;102554.22;5044736;28;19920;-76
2023/05/19 07:37:08;;;;;;;;;;;;;;;13.73;62.71;102548.78;5052874;28;20007;-76
2023/05/19 07:39:34;;;;;;;;;;;;;;;13.87;61.61;102556.66;5038672;28;19913;-76
2023/05/19 07:41:59;;;;;;;;;;;;;;;13.96;61.48;102552.13;5051396;28;19920;-76
2023/05/19 07:44:25;;;;;;;;;;;;;;;14.09;61.44;102552.91;5053078;28;20394;-75
2023/05/19 07:46:51;;;;;;;;;;;;;;;14.23;60.76;102544.78;5048408;28;19924;-76
2023/05/19 07:49:17;;;;;;;;;;;;;;;14.37;60.48;102542.88;5052537;28;20280;-76
2023/05/19 07:51:42;;;;;;;;;;;;;;;14.52;58.84;102541.81;5052331;28;19921;-77
2023/05/19 07:54:07;;;;;;;;;;;;;;;14.59;59.45;102540.88;5052111;28;19946;-76
2023/05/19 07:56:33;;;;;;;;;;;;;;;14.69;57.60;102543.41;5052303;28;20382;-76
2023/05/19 07:58:58;;;;;;;;;;;;;;;14.76;59.22;102535.34;5052413;28;19950;-75
2023/05/19 08:01:24;;;;;;;;;;;;;;;14.90;58.21;102528.97;5037440;28;19956;-75
2023/05/19 08:03:49;;;;;;;;;;;;;;;15.04;58.67;102537.66;5052076;28;19920;-75
2023/05/19 08:06:14;;;;;;;;;;;;;;;15.21;57.92;102532.09;5052436;28;19925;-75
2023/05/19 08:08:41;;;;;;;;;;;;;;;15.34;57.67;102531.00;5052373;28;19924;-76
2023/05/19 08:11:06;;;;;;;;;;;;;;;15.44;56.46;102516.59;5052142;28;19923;-73
2023/05/19 08:13:31;;;;;;;;;;;;;;;15.57;56.58;102527.97;5052143;28;19912;-75
2023/05/19 08:15:58;;;;;;;;;;;;;;;15.68;55.61;102518.00;5052227;28;20009;-75
2023/05/19 08:18:27;;;;;;;;;;;;;;;15.74;56.15;102518.84;5052221;28;20013;-75
2023/05/19 08:20:52;;;;;;;;;;;;;;;15.79;55.87;102520.53;5038019;28;19962;-75
2023/05/19 08:23:18;;;;;;;;;;;;;;;15.88;55.77;102520.38;5052473;28;19982;-75
2023/05/19 08:25:43;;;;;;;;;;;;;;;15.98;54.79;102522.91;5051523;28;20409;-75
2023/05/19 08:28:09;;;;;;;;;;;;;;;16.05;54.32;102508.53;5050079;28;19923;-76
2023/05/19 08:30:35;;;;;;;;;;;;;;;16.14;53.56;102511.00;5050367;28;19927;-75
2023/05/19 08:33:00;;;;;;;;;;;;;;;16.23;54.41;102510.84;5044222;28;19921;-75
2023/05/19 08:35:26;;;;;;;;;;;;;;;16.36;53.86;102511.47;5048545;28;20436;-75
2023/05/19 08:37:51;;;;;;;;;;;;;;;16.46;54.25;102504.16;5052127;28;20012;-75
2023/05/19 08:40:17;;;;;;;;;;;;;;;16.54;53.52;102500.44;5051575;28;19921;-75
2023/05/19 08:42:43;;;;;;;;;;;;;;;16.58;53.66;102500.38;5051871;28;19921;-75
2023/05/19 08:45:09;;;;;;;;;;;;;;;16.62;53.13;102496.72;5036598;28;19916;-75
2023/05/19 08:47:34;;;;;;;;;;;;;;;16.63;53.38;102491.31;5045829;28;19917;-75
2023/05/19 08:50:06;;;;;;;;;;;;;;;16.70;52.58;102492.97;5051603;28;19975;-75
2023/05/19 08:52:44;;;;;;;;;;;;;;;16.79;52.38;102488.34;5050839;28;20015;-75
2023/05/19 08:55:32;;;;;;;;;;;;;;;16.81;52.91;102487.41;5051725;28;19967;-75
2023/05/19 08:57:58;;;;;;;;;;;;;;;16.90;52.43;102476.50;5051963;28;20310;-75
2023/05/19 09:00:24;;;;;;;;;;;;;;;16.94;51.43;102483.56;5051444;28;19924;-75
2023/05/19 09:02:50;;;;;;;;;;;;;;;17.01;52.18;102484.28;5051805;28;19974;-75
2023/05/19 09:05:16;;;;;;;;;;;;;;;17.14;51.74;102476.88;5051330;28;19993;-75
2023/05/19 09:07:42;;;;;;;;;;;;;;;17.23;50.42;102478.44;5055241;28;19926;-75
2023/05/19 09:10:07;;;;;;;;;;;;;;;17.29;48.68;102470.28;5035323;28;20006;-75
2023/05/19 09:12:33;;;;;;;;;;;;;;;17.43;51.02;102476.16;5055311;28;20378;-75
2023/05/19 09:14:59;;;;;;;;;;;;;;;17.55;49.36;102470.50;5054829;28;19928;-75
2023/05/19 09:17:24;;;;;;;;;;;;;;;17.53;48.86;102468.78;5055044;28;20023;-75
2023/05/19 09:19:50;;;;;;;;;;;;;;;17.52;47.30;102475.06;5054764;28;20001;-75
2023/05/19 09:22:17;;;;;;;;;;;;;;;17.49;46.28;102465.31;5055179;28;19925;-75
2023/05/19 09:24:43;;;;;;;;;;;;;;;17.51;47.84;102459.94;5055282;28;19956;-75
2023/05/19 09:27:08;;;;;;;;;;;;;;;17.65;47.10;102449.72;5053599;28;19956;-75
2023/05/19 09:29:34;;;;;;;;;;;;;;;17.84;45.87;102460.88;5043735;28;19932;-75
2023/05/19 09:32:02;;;;;;;;;;;;;;;18.10;46.77;102456.59;5054817;28;19924;-75
2023/05/19 09:34:28;;;;;;;;;;;;;;;18.37;46.64;102442.44;5054525;28;19924;-75
2023/05/19 09:36:53;;;;;;;;;;;;;;;18.60;46.26;102444.44;5054970;28;19920;-75
2023/05/19 09:39:19;;;;;;;;;;;;;;;18.83;44.70;102449.13;5054849;28;19917;-75
2023/05/19 09:41:45;;;;;;;;;;;;;;;19.00;43.78;102442.34;5054631;28;20268;-75
2023/05/19 09:44:19;;;;;;;;;;;;;;;19.15;42.19;102451.72;5054547;28;19912;-75
2023/05/19 09:46:51;;;;;;;;;;;;;;;19.22;43.77;102453.28;5049607;28;19924;-75
2023/05/19 09:49:24;;;;;;;;;;;;;;;19.30;44.00;102435.97;5054500;28;20011;-75
2023/05/19 09:51:53;;;;;;;;;;;;;;;19.49;41.74;102438.06;5053314;28;19917;-75
2023/05/19 09:54:20;;;;;;;;;;;;;;;19.60;39.74;102446.63;5054657;28;20344;-75
2023/05/19 09:56:50;;;;;;;;;;;;;;;19.58;39.94;102451.16;5054309;28;19969;-75
2023/05/19 09:59:15;;;;;;;;;;;;;;;19.62;39.85;102458.22;5054430;28;19971;-75
2023/05/19 10:01:45;;;;;;;;;;;;;;;19.67;41.39;102450.00;5054265;28;20355;-75
2023/05/19 10:04:10;;;;;;;;;;;;;;;19.74;42.39;102449.75;5054484;28;19916;-75
2023/05/19 10:06:35;;;;;;;;;;;;;;;19.98;41.64;102450.72;5054090;28;19982;-75
2023/05/19 10:09:01;;;;;;;;;;;;;;;20.14;41.28;102440.25;5054150;28;20275;-75
2023/05/19 10:11:28;;;;;;;;;;;;;;;20.30;41.85;102439.69;5052613;28;19920;-75
2023/05/19 10:13:54;;;;;;;;;;;;;;;20.35;40.69;102441.28;5054014;28;19912;-75
2023/05/19 10:16:20;;;;;;;;;;;;;;;20.38;36.12;102440.31;5053573;28;19947;-75
2023/05/19 10:18:46;;;;;;;;;;;;;;;20.42;40.32;102447.28;5054165;28;19924;-75
2023/05/19 10:21:12;;;;;;;;;;;;;;;20.51;39.18;102443.41;5042125;28;20376;-75
2023/05/19 10:23:38;;;;;;;;;;;;;;;20.54;40.89;102441.44;5053793;28;19913;-75
2023/05/19 10:26:05;;;;;;;;;;;;;;;20.51;41.33;102433.50;5053720;28;20236;-75
2023/05/19 10:28:34;;;;;;;;;;;;;;;20.39;38.28;102433.97;5045958;28;20067;-75
2023/05/19 10:31:00;;;;;;;;;;;;;;;20.39;39.68;102436.66;5036105;28;20377;-75
2023/05/19 10:33:42;;;;;;;;;;;;;;;20.46;38.30;102435.50;5053288;28;20665;-75
2023/05/19 10:36:28;;;;;;;;;;;;;;;20.18;39.25;102436.53;5052101;28;20291;-75
2023/05/19 10:39:15;;;;;;;;;;;;;;;20.06;37.67;102433.41;5041775;28;19917;-75
2023/05/19 10:41:59;;;;;;;;;;;;;;;20.21;40.14;102429.28;5051859;28;19917;-75
2023/05/19 10:44:38;;;;;;;;;;;;;;;20.46;39.01;102410.41;5053421;28;19917;-75
2023/05/19 10:47:05;;;;;;;;;;;;;;;20.69;38.35;102423.00;5048121;28;20394;-75
2023/05/19 10:49:33;;;;;;;;;;;;;;;20.79;37.46;102424.38;5053196;28;19917;-75
2023/05/19 10:51:59;;;;;;;;;;;;;;;20.82;39.86;102419.75;5053493;28;19917;-75
2023/05/19 10:54:42;;;;;;;;;;;;;;;20.81;38.92;102414.44;5039728;28;19924;-75
2023/05/19 10:57:08;;;;;;;;;;;;;;;20.94;37.50;102410.28;5039929;28;19945;-75
2023/05/19 10:59:38;;;;;;;;;;;;;;;21.15;38.21;102407.69;5053148;28;20348;-75
2023/05/19 11:02:07;;;;;;;;;;;;;;;21.35;37.90;102423.00;5053138;28;19928;-75
2023/05/19 11:04:46;;;;;;;;;;;;;;;21.59;38.61;102415.75;5051701;28;19939;-75
2023/05/19 11:07:23;;;;;;;;;;;;;;;21.83;37.29;102411.94;5051802;28;19921;-75
2023/05/19 11:09:51;;;;;;;;;;;;;;;22.05;38.27;102409.16;5052761;28;19917;-75
2023/05/19 11:12:21;;;;;;;;;;;;;;;22.24;37.11;102405.69;5051613;28;19912;-75
2023/05/19 11:14:47;;;;;;;;;;;;;;;22.44;38.35;102405.63;5053026;28;19920;-75
2023/05/19 11:17:13;;;;;;;;;;;;;;;22.59;37.42;102408.53;5034883;28;19995;-75
2023/05/19 11:19:50;;;;;;;;;;;;;;;22.63;36.51;102397.53;5046711;28;19921;-75
2023/05/19 11:22:15;;;;;;;;;;;;;;;22.74;36.82;102410.50;5035171;28;20375;-75
2023/05/19 11:24:45;;;;;;;;;;;;;;;22.84;37.30;102405.53;5052696;28;19924;-75
2023/05/19 11:27:32;;;;;;;;;;;;;;;22.81;36.60;102401.16;5051565;28;19935;-75
2023/05/19 11:30:05;;;;;;;;;;;;;;;22.80;36.58;102396.72;5047199;28;20063;-75
2023/05/19 11:32:34;;;;;;;;;;;;;;;22.76;37.10;102398.66;5052744;28;19931;-75
2023/05/19 11:35:00;;;;;;;;;;;;;;;22.85;37.51;102388.34;5046150;28;19921;-75
2023/05/19 11:37:27;;;;;;;;;;;;;;;23.15;37.82;102395.00;5052657;28;20445;-75
2023/05/19 11:39:53;;;;;;;;;;;;;;;23.47;34.83;102395.19;5036855;28;19960;-75
2023/05/19 11:42:19;;;;;;;;;;;;;;;23.52;37.04;102392.25;5050972;28;19948;-75
2023/05/19 11:44:45;;;;;;;;;;;;;;;23.62;35.31;102388.09;5052168;28;19959;-75
2023/05/19 11:47:10;;;;;;;;;;;;;;;23.75;35.67;102380.25;5046940;28;19921;-75
2023/05/19 11:49:36;;;;;;;;;;;;;;;23.95;30.64;102369.22;5052158;28;20265;-75
2023/05/19 11:52:02;;;;;;;;;;;;;;;23.89;32.68;102385.81;5034445;28;20343;-76
2023/05/19 11:54:31;;;;;;;;;;;;;;;23.82;35.03;102387.06;5052250;28;20283;-75
2023/05/19 11:56:58;;;;;;;;;;;;;;;23.91;35.60;102385.69;5052004;28;19927;-75
2023/05/19 11:59:34;;;;;;;;;;;;;;;23.97;32.47;102386.25;5039647;28;19952;-75
2023/05/19 12:02:02;;;;;;;;;;;;;;;23.87;35.55;102389.53;5050810;28;19921;-75
2023/05/19 12:04:27;;;;;;;;;;;;;;;23.93;34.75;102365.72;5050695;28;19963;-75
2023/05/19 12:06:53;;;;;;;;;;;;;;;24.17;34.71;102373.47;5052099;28;19921;-75
2023/05/19 12:09:23;;;;;;;;;;;;;;;24.38;31.66;102374.09;5052006;28;19971;-75
2023/05/19 12:11:50;;;;;;;;;;;;;;;24.58;33.28;102367.59;5052004;28;20011;-75
2023/05/19 12:14:16;;;;;;;;;;;;;;;24.80;34.06;102365.41;5051901;28;19912;-75
2023/05/19 12:16:42;;;;;;;;;;;;;;;25.03;33.97;102358.66;5051843;28;19925;-75
2023/05/19 12:19:08;;;;;;;;;;;;;;;25.13;34.49;102347.28;5049709;28;19933;-76
2023/05/19 12:21:34;;;;;;;;;;;;;;;25.16;34.48;102357.94;5043760;28;19917;-76
2023/05/19 12:24:00;;;;;;;;;;;;;;;25.31;34.52;102368.75;5051895;28;19967;-76
2023/05/19 12:26:26;;;;;;;;;;;;;;;25.51;33.52;102362.09;5051669;28;20380;-76
2023/05/19 12:28:51;;;;;;;;;;;;;;;25.76;33.30;102357.88;5041812;28;19923;-76
2023/05/19 12:31:17;;;;;;;;;;;;;;;25.86;29.63;102353.66;5035290;28;20092;-76
2023/05/19 12:33:44;;;;;;;;;;;;;;;25.82;33.11;102354.81;5052001;28;19917;-75
2023/05/19 12:36:12;;;;;;;;;;;;;;;26.08;33.58;102358.59;5051530;28;19931;-75
2023/05/19 12:38:38;;;;;;;;;;;;;;;26.36;32.01;102359.59;5050674;28;19983;-76
2023/05/19 12:41:04;;;;;;;;;;;;;;;26.23;30.08;102354.03;5054125;28;20307;-76
2023/05/19 12:43:29;;;;;;;;;;;;;;;26.39;31.46;102357.53;5054605;28;19920;-76